Time;durP1;ratioP1;P1;durP2;ratioP2;P2;SDS_P1;SDS_P2;PMS_P1;PMS_P2;Temp;Humidity;BMP_temperature;BMP_pressure;BME280_temperature;BME280_humidity;BME280_pressure;Samples;Min_cycle;Max_cycle;Signal;HPM_P1;HPM_P2
2022/07/06 00:01:56;;;;;;;3.57;2.23;;;;;;;;;;5011726;28;20453;-56
2022/07/06 00:04:22;;;;;;;2.70;2.43;;;;;;;;;;5012405;28;20946;-53
2022/07/06 00:06:48;;;;;;;2.20;2.10;;;;;;;;;;5012363;28;20441;-54
2022/07/06 00:09:14;;;;;;;5.60;2.37;;;;;;;;;;5012490;28;20425;-52
2022/07/06 00:11:41;;;;;;;4.20;1.83;;;;;;;;;;5011892;28;20565;-53
2022/07/06 00:14:07;;;;;;;2.50;2.23;;;;;;;;;;5012408;28;20425;-55
2022/07/06 00:16:33;;;;;;;4.70;2.27;;;;;;;;;;5011821;28;20392;-54
2022/07/06 00:18:59;;;;;;;1.93;1.83;;;;;;;;;;5012164;28;20414;-53
2022/07/06 00:21:25;;;;;;;2.20;2.10;;;;;;;;;;5011649;28;20497;-58
2022/07/06 00:23:51;;;;;;;2.90;2.70;;;;;;;;;;5012096;28;20786;-57
2022/07/06 00:26:18;;;;;;;2.53;2.33;;;;;;;;;;5011946;28;20450;-57
2022/07/06 00:28:44;;;;;;;3.17;2.60;;;;;;;;;;5012362;28;20843;-56
2022/07/06 00:31:10;;;;;;;3.57;2.33;;;;;;;;;;5011329;28;20417;-57
2022/07/06 00:33:36;;;;;;;2.60;2.40;;;;;;;;;;5012224;28;20763;-56
2022/07/06 00:36:02;;;;;;;3.93;2.83;;;;;;;;;;5012009;28;20426;-54
2022/07/06 00:38:28;;;;;;;3.90;2.70;;;;;;;;;;5011988;28;20471;-53
2022/07/06 00:40:54;;;;;;;3.20;2.27;;;;;;;;;;5011164;28;20549;-53
2022/07/06 00:43:20;;;;;;;2.63;2.43;;;;;;;;;;5011745;28;20448;-53
2022/07/06 00:45:46;;;;;;;2.50;2.30;;;;;;;;;;5013061;28;20421;-54
2022/07/06 00:48:12;;;;;;;2.93;2.23;;;;;;;;;;5011754;28;20438;-55
2022/07/06 00:50:38;;;;;;;3.10;2.37;;;;;;;;;;5011430;28;20378;-54
2022/07/06 00:53:05;;;;;;;3.53;2.10;;;;;;;;;;5011862;28;20485;-55
2022/07/06 00:55:32;;;;;;;5.73;2.63;;;;;;;;;;5011744;28;20434;-54
2022/07/06 00:58:00;;;;;;;4.43;2.60;;;;;;;;;;5011744;28;20443;-54
2022/07/06 01:00:27;;;;;;;3.00;2.80;;;;;;;;;;5010883;28;20459;-54
2022/07/06 01:02:53;;;;;;;4.10;2.87;;;;;;;;;;5010822;28;20512;-54
2022/07/06 01:05:19;;;;;;;2.57;2.37;;;;;;;;;;5011343;28;20416;-54
2022/07/06 01:07:46;;;;;;;3.23;2.27;;;;;;;;;;5010472;28;20415;-55
2022/07/06 01:10:13;;;;;;;2.37;2.10;;;;;;;;;;5011056;28;20399;-54
2022/07/06 01:12:40;;;;;;;2.57;2.37;;;;;;;;;;5011696;28;20409;-54
2022/07/06 01:15:08;;;;;;;2.63;2.40;;;;;;;;;;5011702;28;20398;-54
2022/07/06 01:17:34;;;;;;;3.37;2.30;;;;;;;;;;5010946;28;20958;-57
2022/07/06 01:20:19;;;;;;;2.73;2.23;;;;;;;;;;5011266;28;20406;-54
2022/07/06 01:22:46;;;;;;;2.60;2.40;;;;;;;;;;5011499;28;20517;-53
2022/07/06 01:25:12;;;;;;;3.63;1.90;;;;;;;;;;5011971;28;20448;-54
2022/07/06 01:27:39;;;;;;;2.70;2.43;;;;;;;;;;5011669;28;20872;-55
2022/07/06 01:30:09;;;;;;;2.97;2.37;;;;;;;;;;5011529;28;20480;-56
2022/07/06 01:32:36;;;;;;;2.43;2.23;;;;;;;;;;5011491;28;20485;-55
2022/07/06 01:35:02;;;;;;;2.33;2.13;;;;;;;;;;5011672;28;20881;-54
2022/07/06 01:37:28;;;;;;;3.00;2.70;;;;;;;;;;5014922;28;20407;-53
2022/07/06 01:39:54;;;;;;;6.60;2.43;;;;;;;;;;5015550;28;20920;-54
2022/07/06 01:42:20;;;;;;;4.63;2.77;;;;;;;;;;5014895;28;20821;-54
2022/07/06 01:44:46;;;;;;;2.50;2.30;;;;;;;;;;5015351;28;20432;-55
2022/07/06 01:47:12;;;;;;;7.67;2.50;;;;;;;;;;5015166;28;20471;-56
2022/07/06 01:49:38;;;;;;;2.80;2.33;;;;;;;;;;5015171;28;20405;-54
2022/07/06 01:52:04;;;;;;;3.43;2.50;;;;;;;;;;5014541;28;20878;-53
2022/07/06 01:54:30;;;;;;;2.20;2.10;;;;;;;;;;5015026;28;20403;-54
2022/07/06 01:56:56;;;;;;;2.60;2.20;;;;;;;;;;5015170;28;20990;-54
2022/07/06 01:59:22;;;;;;;6.30;2.57;;;;;;;;;;5014946;28;20411;-54
2022/07/06 02:01:48;;;;;;;2.40;2.20;;;;;;;;;;5014340;28;20453;-53
2022/07/06 02:04:14;;;;;;;3.20;2.20;;;;;;;;;;5014970;28;20752;-54
2022/07/06 02:06:39;;;;;;;2.80;2.33;;;;;;;;;;5014831;28;20570;-55
2022/07/06 02:09:06;;;;;;;2.77;2.57;;;;;;;;;;5014828;28;20490;-56
2022/07/06 02:11:32;;;;;;;2.80;2.00;;;;;;;;;;5014463;28;20383;-55
2022/07/06 02:13:58;;;;;;;2.67;2.30;;;;;;;;;;5014739;28;20384;-55
2022/07/06 02:16:24;;;;;;;4.70;2.50;;;;;;;;;;5014805;28;20933;-55
2022/07/06 02:18:50;;;;;;;2.50;2.30;;;;;;;;;;5014688;28;20532;-54
2022/07/06 02:21:16;;;;;;;5.07;2.37;;;;;;;;;;5013973;28;20947;-54
2022/07/06 02:23:42;;;;;;;5.00;2.43;;;;;;;;;;5014522;28;20495;-54
2022/07/06 02:26:08;;;;;;;2.60;2.40;;;;;;;;;;5014668;28;20480;-55
2022/07/06 02:28:34;;;;;;;8.57;2.50;;;;;;;;;;5014450;28;20454;-53
2022/07/06 02:31:00;;;;;;;2.57;2.37;;;;;;;;;;5013948;28;20441;-54
2022/07/06 02:33:26;;;;;;;1.90;1.80;;;;;;;;;;5014391;28;20818;-54
2022/07/06 02:35:52;;;;;;;6.60;2.30;;;;;;;;;;5013705;28;20409;-53
2022/07/06 02:38:18;;;;;;;4.50;3.00;;;;;;;;;;5013964;28;20936;-53
2022/07/06 02:40:44;;;;;;;3.20;2.20;;;;;;;;;;5014035;28;20483;-53
2022/07/06 02:43:10;;;;;;;2.70;2.27;;;;;;;;;;5014334;28;20923;-56
2022/07/06 02:45:36;;;;;;;4.57;2.53;;;;;;;;;;5014309;28;20748;-53
2022/07/06 02:48:02;;;;;;;4.33;2.40;;;;;;;;;;5013891;28;20508;-53
2022/07/06 02:50:27;;;;;;;2.40;2.20;;;;;;;;;;5013805;28;20853;-54
2022/07/06 02:52:54;;;;;;;4.23;2.10;;;;;;;;;;5014027;28;20431;-54
2022/07/06 02:55:21;;;;;;;2.83;2.40;;;;;;;;;;5014069;28;20829;-53
2022/07/06 02:57:47;;;;;;;2.70;2.50;;;;;;;;;;5013983;28;20464;-53
2022/07/06 03:00:13;;;;;;;5.57;2.77;;;;;;;;;;5013578;28;20419;-54
2022/07/06 03:02:39;;;;;;;3.90;2.30;;;;;;;;;;5013853;28;20396;-56
2022/07/06 03:05:06;;;;;;;3.23;2.50;;;;;;;;;;5013713;28;20395;-54
2022/07/06 03:07:32;;;;;;;4.70;2.23;;;;;;;;;;5013653;28;20922;-54
2022/07/06 03:09:58;;;;;;;4.33;2.40;;;;;;;;;;5013637;28;20401;-55
2022/07/06 03:12:24;;;;;;;2.43;2.23;;;;;;;;;;5013542;28;20623;-53
2022/07/06 03:14:50;;;;;;;5.43;2.57;;;;;;;;;;5013712;28;20416;-53
2022/07/06 03:17:16;;;;;;;2.97;2.40;;;;;;;;;;5013413;28;20516;-53
2022/07/06 03:19:42;;;;;;;6.00;2.17;;;;;;;;;;5013519;28;20416;-53
2022/07/06 03:22:08;;;;;;;3.40;2.33;;;;;;;;;;5013154;28;20811;-54
2022/07/06 03:24:34;;;;;;;2.53;2.33;;;;;;;;;;5013472;28;20467;-54
2022/07/06 03:27:00;;;;;;;2.00;1.90;;;;;;;;;;5013315;28;20410;-55
2022/07/06 03:29:26;;;;;;;2.60;2.27;;;;;;;;;;5013342;28;20395;-54
2022/07/06 03:31:52;;;;;;;7.17;3.20;;;;;;;;;;5013084;28;20411;-53
2022/07/06 03:34:17;;;;;;;3.83;2.70;;;;;;;;;;5013257;28;20407;-55
2022/07/06 03:36:43;;;;;;;4.17;2.40;;;;;;;;;;5013151;28;20469;-53
2022/07/06 03:39:09;;;;;;;4.77;2.67;;;;;;;;;;5013138;28;20427;-53
2022/07/06 03:41:35;;;;;;;2.93;2.40;;;;;;;;;;5012868;28;20458;-53
2022/07/06 03:44:01;;;;;;;2.83;2.63;;;;;;;;;;5013168;28;20404;-55
2022/07/06 03:46:28;;;;;;;2.50;2.30;;;;;;;;;;5012912;28;20411;-53
2022/07/06 03:48:54;;;;;;;2.90;2.70;;;;;;;;;;5013005;28;20414;-53
2022/07/06 03:51:20;;;;;;;4.43;3.33;;;;;;;;;;5012698;28;20416;-54
2022/07/06 03:53:46;;;;;;;3.60;2.63;;;;;;;;;;5012958;28;20465;-54
2022/07/06 03:56:27;;;;;;;2.60;2.40;;;;;;;;;;5013310;28;20765;-54
2022/07/06 03:58:57;;;;;;;6.17;2.37;;;;;;;;;;5012693;28;20434;-55
2022/07/06 04:01:23;;;;;;;6.70;2.00;;;;;;;;;;5012525;28;20539;-53
2022/07/06 04:03:49;;;;;;;2.53;2.43;;;;;;;;;;5012734;28;20418;-53
2022/07/06 04:06:15;;;;;;;3.47;2.50;;;;;;;;;;5012812;28;20408;-53
2022/07/06 04:08:41;;;;;;;2.50;2.30;;;;;;;;;;5012727;28;20399;-54
2022/07/06 04:11:07;;;;;;;3.57;2.60;;;;;;;;;;5012436;28;20410;-54
2022/07/06 04:13:33;;;;;;;3.13;2.00;;;;;;;;;;5012522;28;20444;-54
2022/07/06 04:15:59;;;;;;;2.20;2.10;;;;;;;;;;5012620;28;20440;-53
2022/07/06 04:18:25;;;;;;;3.97;2.10;;;;;;;;;;5012225;28;21011;-55
2022/07/06 04:20:51;;;;;;;2.63;2.43;;;;;;;;;;5011990;28;20541;-55
2022/07/06 04:23:17;;;;;;;3.53;2.57;;;;;;;;;;5012461;28;20893;-53
2022/07/06 04:25:43;;;;;;;3.97;2.50;;;;;;;;;;5012500;28;20494;-53
2022/07/06 04:28:09;;;;;;;3.50;2.43;;;;;;;;;;5012303;28;20463;-53
2022/07/06 04:30:35;;;;;;;3.60;2.50;;;;;;;;;;5012108;28;20410;-54
2022/07/06 04:33:01;;;;;;;2.70;2.30;;;;;;;;;;5012415;28;20406;-53
2022/07/06 04:35:27;;;;;;;2.57;2.37;;;;;;;;;;5012186;28;20406;-53
2022/07/06 04:37:53;;;;;;;4.13;2.67;;;;;;;;;;5012113;28;20445;-54
2022/07/06 04:40:19;;;;;;;2.73;2.33;;;;;;;;;;5011987;28;20412;-54
2022/07/06 04:42:45;;;;;;;2.57;2.33;;;;;;;;;;5012321;28;20405;-54
2022/07/06 04:45:11;;;;;;;5.23;2.63;;;;;;;;;;5012280;28;20396;-54
2022/07/06 04:47:37;;;;;;;3.70;2.20;;;;;;;;;;5012038;28;20424;-56
2022/07/06 04:50:04;;;;;;;2.63;2.33;;;;;;;;;;5012462;28;20438;-55
2022/07/06 04:52:30;;;;;;;3.93;2.10;;;;;;;;;;5012025;28;20454;-53
2022/07/06 04:54:56;;;;;;;2.63;2.43;;;;;;;;;;5012082;28;20850;-54
2022/07/06 04:57:22;;;;;;;4.30;2.70;;;;;;;;;;5012156;28;20463;-54
2022/07/06 04:59:48;;;;;;;4.53;2.20;;;;;;;;;;5011951;28;20412;-53
2022/07/06 05:02:14;;;;;;;5.50;2.37;;;;;;;;;;5011686;28;20453;-54
2022/07/06 05:04:40;;;;;;;6.80;2.50;;;;;;;;;;5011840;28;21006;-54
2022/07/06 05:07:06;;;;;;;2.30;2.20;;;;;;;;;;5012064;28;20470;-55
2022/07/06 05:09:32;;;;;;;2.07;1.87;;;;;;;;;;5012475;28;20420;-53
2022/07/06 05:11:58;;;;;;;2.10;2.00;;;;;;;;;;5015755;28;20404;-53
2022/07/06 05:14:24;;;;;;;2.63;2.00;;;;;;;;;;5015956;28;20376;-54
2022/07/06 05:16:50;;;;;;;2.30;2.07;;;;;;;;;;5015487;28;20416;-53
2022/07/06 05:19:16;;;;;;;3.13;2.53;;;;;;;;;;5015773;28;20505;-54
2022/07/06 05:21:42;;;;;;;2.63;1.77;;;;;;;;;;5015598;28;20552;-53
2022/07/06 05:24:08;;;;;;;6.30;2.47;;;;;;;;;;5015880;28;20812;-55
2022/07/06 05:26:34;;;;;;;4.40;2.23;;;;;;;;;;5015666;28;20410;-54
2022/07/06 05:29:00;;;;;;;3.23;2.20;;;;;;;;;;5015530;28;20408;-54
2022/07/06 05:31:26;;;;;;;4.93;2.60;;;;;;;;;;5015106;28;20412;-55
2022/07/06 05:33:52;;;;;;;2.50;2.30;;;;;;;;;;5015276;28;20428;-56
2022/07/06 05:36:18;;;;;;;2.57;1.67;;;;;;;;;;5015595;28;20747;-53
2022/07/06 05:38:44;;;;;;;2.83;2.30;;;;;;;;;;5015441;28;20424;-54
2022/07/06 05:41:10;;;;;;;3.93;2.63;;;;;;;;;;5014650;28;20449;-53
2022/07/06 05:43:37;;;;;;;7.90;2.33;;;;;;;;;;5014645;28;20417;-54
2022/07/06 05:46:03;;;;;;;4.60;2.17;;;;;;;;;;5015438;28;20463;-53
2022/07/06 05:51:13;;;;;;;3.93;2.30;;;;;;;;;;5015338;28;20881;-55
2022/07/06 05:53:39;;;;;;;6.97;2.80;;;;;;;;;;5015501;28;20858;-54
2022/07/06 05:56:06;;;;;;;5.30;2.23;;;;;;;;;;5015054;28;20491;-56
2022/07/06 05:58:31;;;;;;;10.30;2.77;;;;;;;;;;5015000;28;20993;-53
2022/07/06 06:00:57;;;;;;;2.27;2.07;;;;;;;;;;5014765;28;20524;-53
2022/07/06 06:03:23;;;;;;;2.73;2.53;;;;;;;;;;5014963;28;20402;-53
2022/07/06 06:05:50;;;;;;;3.87;2.00;;;;;;;;;;5015056;28;20402;-54
2022/07/06 06:08:16;;;;;;;3.30;2.40;;;;;;;;;;5014935;28;20436;-53
2022/07/06 06:10:42;;;;;;;2.20;2.10;;;;;;;;;;5015053;28;20733;-53
2022/07/06 06:13:08;;;;;;;2.20;1.93;;;;;;;;;;5014814;28;20407;-53
2022/07/06 06:15:34;;;;;;;4.80;1.80;;;;;;;;;;5014848;28;20413;-54
2022/07/06 06:18:00;;;;;;;5.07;1.73;;;;;;;;;;5014556;28;20418;-53
2022/07/06 06:20:26;;;;;;;4.40;1.70;;;;;;;;;;5014364;28;20478;-53
2022/07/06 06:22:53;;;;;;;3.73;1.80;;;;;;;;;;5014017;28;20431;-54
2022/07/06 06:25:21;;;;;;;5.87;2.03;;;;;;;;;;5014919;28;20408;-53
2022/07/06 06:27:47;;;;;;;4.30;1.80;;;;;;;;;;5014744;28;20406;-53
2022/07/06 06:30:13;;;;;;;1.60;1.50;;;;;;;;;;5014347;28;20422;-55
2022/07/06 06:32:40;;;;;;;6.20;2.37;;;;;;;;;;5014403;28;20903;-54
2022/07/06 06:35:06;;;;;;;5.03;1.73;;;;;;;;;;5014503;28;20416;-53
2022/07/06 06:37:32;;;;;;;2.20;2.00;;;;;;;;;;5014158;28;20454;-54
2022/07/06 06:39:58;;;;;;;8.40;2.10;;;;;;;;;;5014310;28;20533;-54
2022/07/06 06:42:24;;;;;;;7.37;1.97;;;;;;;;;;5014057;28;20554;-55
2022/07/06 06:44:50;;;;;;;3.27;1.70;;;;;;;;;;5015203;28;20396;-53
2022/07/06 06:47:16;;;;;;;2.43;1.80;;;;;;;;;;5014152;28;20395;-52
2022/07/06 06:49:42;;;;;;;2.10;1.37;;;;;;;;;;5014186;28;20379;-53
2022/07/06 06:52:08;;;;;;;3.13;1.40;;;;;;;;;;5013815;28;20401;-53
2022/07/06 06:54:34;;;;;;;2.27;1.50;;;;;;;;;;5014261;28;20409;-55
2022/07/06 06:57:00;;;;;;;1.70;1.30;;;;;;;;;;5013460;28;20786;-53
2022/07/06 06:59:26;;;;;;;3.70;1.17;;;;;;;;;;5013408;28;20405;-53
2022/07/06 07:01:52;;;;;;;2.80;1.37;;;;;;;;;;5013138;28;20480;-54
2022/07/06 07:04:18;;;;;;;2.83;1.40;;;;;;;;;;5013120;28;20397;-52
2022/07/06 07:06:44;;;;;;;3.57;2.00;;;;;;;;;;5013162;28;20788;-53
2022/07/06 07:09:09;;;;;;;3.00;1.27;;;;;;;;;;5014005;28;20386;-53
2022/07/06 07:11:35;;;;;;;2.23;1.43;;;;;;;;;;5013365;28;20406;-53
2022/07/06 07:14:02;;;;;;;2.07;1.20;;;;;;;;;;5008660;28;20429;-56
2022/07/06 07:16:28;;;;;;;3.30;1.50;;;;;;;;;;5015943;28;20421;-53
2022/07/06 07:18:54;;;;;;;3.20;1.30;;;;;;;;;;5014700;28;20379;-54
2022/07/06 07:21:20;;;;;;;1.90;1.20;;;;;;;;;;5013039;28;20460;-56
2022/07/06 07:23:46;;;;;;;2.07;1.73;;;;;;;;;;5013610;28;20425;-57
2022/07/06 07:26:13;;;;;;;4.63;1.43;;;;;;;;;;5015734;28;20395;-56
2022/07/06 07:28:39;;;;;;;7.43;2.47;;;;;;;;;;5014203;28;20441;-53
2022/07/06 07:31:05;;;;;;;10.33;1.77;;;;;;;;;;5013966;28;20405;-56
2022/07/06 07:33:32;;;;;;;1.70;1.30;;;;;;;;;;4995683;28;20420;-57
2022/07/06 07:35:58;;;;;;;2.23;1.30;;;;;;;;;;4996740;28;20420;-57
2022/07/06 07:38:24;;;;;;;2.53;1.47;;;;;;;;;;4995538;28;20462;-57
2022/07/06 07:40:50;;;;;;;4.17;1.43;;;;;;;;;;4992171;28;20486;-57
2022/07/06 07:43:16;;;;;;;2.20;1.20;;;;;;;;;;4993461;28;20911;-57
2022/07/06 07:45:42;;;;;;;1.73;1.43;;;;;;;;;;4993506;28;20413;-57
2022/07/06 07:48:09;;;;;;;2.03;1.30;;;;;;;;;;4993379;28;20439;-57
2022/07/06 07:50:35;;;;;;;3.43;1.27;;;;;;;;;;4993211;28;20384;-57
2022/07/06 07:53:01;;;;;;;6.80;1.50;;;;;;;;;;4993281;28;20417;-57
2022/07/06 07:55:27;;;;;;;4.10;1.77;;;;;;;;;;4993463;28;20384;-57
2022/07/06 07:57:53;;;;;;;2.50;1.67;;;;;;;;;;4993621;28;20434;-55
2022/07/06 08:00:21;;;;;;;1.43;1.30;;;;;;;;;;5011756;28;20415;-57
2022/07/06 08:02:47;;;;;;;2.23;1.43;;;;;;;;;;5012876;28;20410;-57
2022/07/06 08:05:15;;;;;;;6.60;1.40;;;;;;;;;;5012721;28;20422;-57
2022/07/06 08:07:41;;;;;;;4.40;1.40;;;;;;;;;;5012743;28;20447;-57
2022/07/06 08:10:07;;;;;;;2.13;1.37;;;;;;;;;;5012495;28;20910;-56
2022/07/06 08:12:33;;;;;;;1.73;1.40;;;;;;;;;;5012618;28;20413;-56
2022/07/06 08:14:59;;;;;;;1.20;1.10;;;;;;;;;;5012108;28;20513;-57
2022/07/06 08:17:25;;;;;;;2.00;1.57;;;;;;;;;;5012826;28;20432;-57
2022/07/06 08:19:51;;;;;;;4.67;1.40;;;;;;;;;;5012631;28;20423;-57
2022/07/06 08:22:17;;;;;;;9.00;2.10;;;;;;;;;;5012307;28;21040;-57
2022/07/06 08:24:43;;;;;;;1.53;1.20;;;;;;;;;;5012353;28;20415;-57
2022/07/06 08:27:09;;;;;;;1.27;1.17;;;;;;;;;;5012651;28;20474;-57
2022/07/06 08:29:35;;;;;;;1.50;1.40;;;;;;;;;;5012304;28;20415;-57
2022/07/06 08:32:01;;;;;;;3.60;1.47;;;;;;;;;;5012622;28;20408;-57
2022/07/06 08:34:27;;;;;;;1.47;1.07;;;;;;;;;;5012030;28;20415;-54
2022/07/06 08:36:53;;;;;;;14.33;2.07;;;;;;;;;;5011888;28;20429;-55
2022/07/06 08:39:19;;;;;;;1.30;1.20;;;;;;;;;;5011719;28;20914;-53
2022/07/06 08:41:47;;;;;;;3.37;1.20;;;;;;;;;;5011727;28;20460;-55
2022/07/06 08:44:13;;;;;;;1.30;1.20;;;;;;;;;;5011508;28;20426;-55
2022/07/06 08:46:40;;;;;;;1.97;1.20;;;;;;;;;;5012233;28;20788;-54
2022/07/06 08:49:09;;;;;;;1.60;1.40;;;;;;;;;;5011636;28;20516;-56
2022/07/06 08:51:36;;;;;;;2.67;1.20;;;;;;;;;;5011679;28;20552;-53
2022/07/06 08:54:05;;;;;;;2.00;1.17;;;;;;;;;;5011795;28;20417;-53
2022/07/06 08:56:31;;;;;;;3.13;1.50;;;;;;;;;;5012070;28;20409;-53
2022/07/06 08:58:57;;;;;;;2.60;1.20;;;;;;;;;;5011539;28;20424;-55
2022/07/06 09:01:23;;;;;;;2.80;1.20;;;;;;;;;;5011460;28;20544;-55
2022/07/06 09:03:50;;;;;;;2.60;1.53;;;;;;;;;;5011468;28;20413;-55
2022/07/06 09:06:17;;;;;;;2.33;1.30;;;;;;;;;;5011577;28;20819;-53
2022/07/06 09:08:44;;;;;;;1.43;1.30;;;;;;;;;;5011617;28;20449;-55
2022/07/06 09:11:10;;;;;;;2.50;1.50;;;;;;;;;;5011484;28;20471;-55
2022/07/06 09:13:36;;;;;;;2.53;1.30;;;;;;;;;;5011573;28;20417;-55
2022/07/06 09:16:12;;;;;;;1.00;0.90;;;;;;;;;;4992129;28;20390;-55
2022/07/06 09:18:38;;;;;;;2.60;1.20;;;;;;;;;;5004274;28;20444;-54
2022/07/06 09:21:05;;;;;;;10.90;1.43;;;;;;;;;;5011148;28;20974;-55
2022/07/06 09:23:31;;;;;;;4.00;1.50;;;;;;;;;;5011840;28;20845;-55
2022/07/06 09:25:57;;;;;;;1.57;1.30;;;;;;;;;;5011358;28;20487;-55
2022/07/06 09:28:23;;;;;;;1.77;1.20;;;;;;;;;;5011435;28;20423;-56
2022/07/06 09:30:49;;;;;;;3.17;1.63;;;;;;;;;;5011106;28;20515;-55
2022/07/06 09:33:18;;;;;;;1.67;1.23;;;;;;;;;;5011758;28;20488;-54
2022/07/06 09:35:45;;;;;;;4.50;1.00;;;;;;;;;;5010162;28;20505;-55
2022/07/06 09:38:14;;;;;;;1.90;1.17;;;;;;;;;;5003615;28;20454;-53
2022/07/06 09:40:44;;;;;;;3.70;1.70;;;;;;;;;;5010449;28;20817;-55
2022/07/06 09:43:18;;;;;;;2.30;1.30;;;;;;;;;;5010508;28;20405;-54
2022/07/06 09:45:45;;;;;;;1.10;1.00;;;;;;;;;;5010039;28;20416;-54
2022/07/06 09:48:13;;;;;;;4.33;1.70;;;;;;;;;;5009690;28;20429;-53
2022/07/06 09:50:40;;;;;;;1.57;1.20;;;;;;;;;;5010588;28;20499;-54
2022/07/06 09:53:07;;;;;;;2.07;1.00;;;;;;;;;;5011531;28;20435;-55
2022/07/06 09:55:33;;;;;;;1.23;1.13;;;;;;;;;;5011215;28;20952;-54
2022/07/06 09:57:59;;;;;;;3.30;1.07;;;;;;;;;;5013925;28;20426;-55
2022/07/06 10:00:25;;;;;;;3.47;1.33;;;;;;;;;;5014401;28;20418;-54
2022/07/06 10:02:51;;;;;;;3.10;1.37;;;;;;;;;;5015107;28;20410;-54
2022/07/06 10:05:18;;;;;;;2.83;1.33;;;;;;;;;;5014664;28;20776;-53
2022/07/06 10:07:50;;;;;;;1.53;1.10;;;;;;;;;;5012353;28;20495;-53
2022/07/06 10:10:16;;;;;;;1.30;1.20;;;;;;;;;;5014573;28;20406;-53
2022/07/06 10:12:43;;;;;;;2.43;0.90;;;;;;;;;;5014329;28;20425;-53
2022/07/06 10:15:09;;;;;;;2.50;1.10;;;;;;;;;;5014825;28;20450;-55
2022/07/06 10:17:35;;;;;;;4.07;1.47;;;;;;;;;;5014264;28;20584;-55
2022/07/06 10:20:02;;;;;;;4.63;1.90;;;;;;;;;;5014465;28;20413;-55
2022/07/06 10:22:28;;;;;;;1.90;0.93;;;;;;;;;;5014158;28;20840;-53
2022/07/06 10:24:57;;;;;;;1.33;1.23;;;;;;;;;;5014573;28;20407;-55
2022/07/06 10:27:24;;;;;;;3.83;1.20;;;;;;;;;;5014011;28;20468;-54
2022/07/06 10:29:50;;;;;;;1.50;1.33;;;;;;;;;;5014324;28;20402;-55
2022/07/06 10:32:18;;;;;;;3.53;1.30;;;;;;;;;;5013915;28;21009;-56
2022/07/06 10:34:44;;;;;;;6.83;2.73;;;;;;;;;;5014554;28;20485;-55
2022/07/06 10:37:22;;;;;;;1.47;1.00;;;;;;;;;;5013869;28;20532;-57
2022/07/06 10:42:51;;;;;;;2.20;1.20;;;;;;;;;;5013901;28;20466;-57
2022/07/06 10:45:29;;;;;;;1.10;1.00;;;;;;;;;;5014169;28;20410;-57
2022/07/06 10:48:11;;;;;;;2.00;1.30;;;;;;;;;;5013107;28;21018;-57
2022/07/06 10:50:39;;;;;;;1.40;1.20;;;;;;;;;;5013559;28;20907;-57
2022/07/06 10:53:13;;;;;;;5.53;1.10;;;;;;;;;;5014118;28;20410;-58
2022/07/06 10:55:40;;;;;;;4.07;1.30;;;;;;;;;;5013794;28;20423;-58
2022/07/06 10:58:07;;;;;;;6.27;1.10;;;;;;;;;;5013936;28;20430;-58
2022/07/06 11:01:02;;;;;;;1.40;1.10;;;;;;;;;;5013057;28;20545;-58
2022/07/06 11:03:35;;;;;;;1.30;0.80;;;;;;;;;;5000859;28;20422;-58
2022/07/06 11:06:01;;;;;;;1.63;1.00;;;;;;;;;;5013551;28;20422;-58
2022/07/06 11:08:43;;;;;;;1.10;1.00;;;;;;;;;;5013244;28;20790;-57
2022/07/06 11:11:14;;;;;;;1.20;0.97;;;;;;;;;;5011089;28;20465;-58
2022/07/06 11:13:52;;;;;;;1.03;0.90;;;;;;;;;;5013387;28;20402;-57
2022/07/06 11:16:19;;;;;;;2.13;1.17;;;;;;;;;;5013193;28;20915;-58
2022/07/06 11:18:49;;;;;;;2.33;1.23;;;;;;;;;;5013310;28;20446;-58
2022/07/06 11:21:19;;;;;;;5.43;1.40;;;;;;;;;;5012900;28;20450;-58
2022/07/06 11:23:47;;;;;;;3.97;1.37;;;;;;;;;;5013601;28;20777;-57
2022/07/06 11:26:13;;;;;;;1.70;1.60;;;;;;;;;;5013385;28;20403;-57
2022/07/06 11:28:39;;;;;;;1.03;0.93;;;;;;;;;;5013094;28;20442;-57
2022/07/06 11:31:05;;;;;;;1.33;1.23;;;;;;;;;;5012946;28;20913;-57
2022/07/06 11:33:32;;;;;;;2.07;1.03;;;;;;;;;;5012727;28;20502;-58
2022/07/06 11:36:20;;;;;;;2.50;1.13;;;;;;;;;;5013043;28;20485;-57
2022/07/06 11:38:47;;;;;;;1.40;0.90;;;;;;;;;;5012969;28;20791;-58
2022/07/06 11:41:14;;;;;;;0.80;0.80;;;;;;;;;;5012669;28;20457;-58
2022/07/06 11:43:47;;;;;;;1.07;0.80;;;;;;;;;;5012899;28;20525;-58
2022/07/06 11:46:19;;;;;;;1.60;1.33;;;;;;;;;;5013091;28;20878;-57
2022/07/06 11:48:52;;;;;;;2.30;1.73;;;;;;;;;;5013167;28;20485;-58
2022/07/06 11:51:18;;;;;;;2.13;1.10;;;;;;;;;;5012730;28;20413;-57
2022/07/06 11:53:49;;;;;;;3.50;1.20;;;;;;;;;;5012717;28;20415;-58
2022/07/06 11:56:16;;;;;;;1.50;1.10;;;;;;;;;;5012849;28;20415;-58
2022/07/06 11:58:43;;;;;;;2.90;1.10;;;;;;;;;;5012516;28;20426;-58
2022/07/06 12:01:10;;;;;;;1.50;0.80;;;;;;;;;;5010789;28;20504;-58
2022/07/06 12:03:37;;;;;;;1.77;0.97;;;;;;;;;;5012363;28;20415;-58
2022/07/06 12:06:03;;;;;;;1.30;0.97;;;;;;;;;;5012776;28;20411;-58
2022/07/06 12:08:29;;;;;;;1.57;1.10;;;;;;;;;;5012522;28;20930;-58
2022/07/06 12:10:56;;;;;;;3.87;0.90;;;;;;;;;;5012050;28;20783;-58
2022/07/06 12:13:23;;;;;;;1.57;1.10;;;;;;;;;;5012449;28;20489;-58
2022/07/06 12:15:49;;;;;;;3.20;1.33;;;;;;;;;;5012381;28;20485;-58
2022/07/06 12:18:14;;;;;;;1.73;1.10;;;;;;;;;;5012269;28;20431;-58
2022/07/06 12:20:40;;;;;;;2.17;1.27;;;;;;;;;;5011328;28;20459;-58
2022/07/06 12:23:07;;;;;;;1.40;1.10;;;;;;;;;;5012564;28;20885;-58
2022/07/06 12:25:34;;;;;;;1.97;1.10;;;;;;;;;;5012228;28;20490;-58
2022/07/06 12:28:00;;;;;;;2.40;1.23;;;;;;;;;;5012151;28;20419;-58
2022/07/06 12:30:27;;;;;;;2.03;1.33;;;;;;;;;;5011794;28;20413;-58
2022/07/06 12:33:12;;;;;;;1.67;1.30;;;;;;;;;;5012392;28;20478;-58
2022/07/06 12:35:38;;;;;;;3.00;1.50;;;;;;;;;;5011982;28;20426;-58
2022/07/06 12:38:04;;;;;;;1.97;1.10;;;;;;;;;;5012064;28;20462;-58
2022/07/06 12:40:31;;;;;;;1.27;1.17;;;;;;;;;;5011418;28;20442;-58
2022/07/06 12:42:57;;;;;;;2.37;1.30;;;;;;;;;;5012013;28;20415;-58
2022/07/06 12:45:27;;;;;;;1.67;1.20;;;;;;;;;;5012212;28;20485;-59
2022/07/06 12:48:06;;;;;;;1.60;1.50;;;;;;;;;;5011833;28;20844;-58
2022/07/06 12:50:33;;;;;;;1.63;1.13;;;;;;;;;;5011675;28;20435;-58
2022/07/06 12:53:00;;;;;;;2.40;1.20;;;;;;;;;;5011876;28;20402;-59
2022/07/06 12:55:27;;;;;;;2.83;1.17;;;;;;;;;;5005034;28;20427;-59
2022/07/06 12:57:53;;;;;;;4.57;1.20;;;;;;;;;;5011843;28;20411;-59
2022/07/06 13:00:21;;;;;;;3.90;1.20;;;;;;;;;;5011604;28;20481;-58
2022/07/06 13:02:48;;;;;;;2.33;1.20;;;;;;;;;;5011814;28;20874;-58
2022/07/06 13:05:15;;;;;;;1.77;1.50;;;;;;;;;;5011959;28;20737;-58
2022/07/06 13:07:45;;;;;;;3.00;1.70;;;;;;;;;;5012111;28;20899;-58
2022/07/06 13:10:13;;;;;;;1.20;1.10;;;;;;;;;;5011906;28;20399;-58
2022/07/06 13:12:40;;;;;;;2.13;0.83;;;;;;;;;;5011948;28;20403;-58
2022/07/06 13:15:07;;;;;;;1.67;1.27;;;;;;;;;;5011813;28;20490;-58
2022/07/06 13:17:33;;;;;;;1.27;1.17;;;;;;;;;;5010828;28;20528;-57
2022/07/06 13:19:59;;;;;;;1.97;1.50;;;;;;;;;;5011322;28;20444;-58
2022/07/06 13:22:25;;;;;;;1.30;0.90;;;;;;;;;;5011107;28;20465;-58
2022/07/06 13:24:51;;;;;;;2.40;1.20;;;;;;;;;;5011585;28;20448;-58
2022/07/06 13:27:17;;;;;;;2.07;1.40;;;;;;;;;;5011590;28;20436;-58
2022/07/06 13:29:43;;;;;;;5.17;1.50;;;;;;;;;;5012122;28;20417;-55
2022/07/06 13:32:09;;;;;;;6.43;1.60;;;;;;;;;;5012831;28;20427;-55
2022/07/06 13:34:35;;;;;;;1.63;0.90;;;;;;;;;;5015483;28;20407;-56
2022/07/06 13:37:02;;;;;;;3.53;1.17;;;;;;;;;;4999701;28;20439;-54
2022/07/06 13:39:28;;;;;;;1.83;1.03;;;;;;;;;;4995656;28;20415;-54
2022/07/06 13:41:54;;;;;;;1.57;1.07;;;;;;;;;;4995459;28;20471;-54
2022/07/06 13:44:20;;;;;;;2.20;1.20;;;;;;;;;;4995698;28;20410;-54
2022/07/06 13:46:46;;;;;;;2.07;1.13;;;;;;;;;;5008283;28;21007;-54
2022/07/06 13:49:13;;;;;;;1.63;1.50;;;;;;;;;;5014688;28;20482;-55
2022/07/06 13:51:39;;;;;;;1.40;1.30;;;;;;;;;;5014276;28;20427;-55
2022/07/06 13:54:05;;;;;;;1.50;1.40;;;;;;;;;;5014938;28;20450;-54
2022/07/06 13:56:31;;;;;;;1.30;1.20;;;;;;;;;;5014490;28;20799;-55
2022/07/06 13:58:57;;;;;;;2.50;1.13;;;;;;;;;;5014914;28;20399;-55
2022/07/06 14:01:24;;;;;;;1.97;1.50;;;;;;;;;;5013717;28;20455;-55
2022/07/06 14:03:50;;;;;;;2.23;1.60;;;;;;;;;;5014835;28;20461;-54
2022/07/06 14:06:16;;;;;;;4.13;1.90;;;;;;;;;;5014618;28;20419;-56
2022/07/06 14:08:42;;;;;;;2.17;1.43;;;;;;;;;;5014688;28;20411;-54
2022/07/06 14:11:09;;;;;;;3.93;1.80;;;;;;;;;;5014313;28;20422;-54
2022/07/06 14:13:35;;;;;;;3.00;1.63;;;;;;;;;;5014886;28;20422;-54
2022/07/06 14:16:01;;;;;;;4.13;2.10;;;;;;;;;;5014239;28;20425;-54
2022/07/06 14:18:28;;;;;;;1.60;1.50;;;;;;;;;;5014511;28;20427;-54
2022/07/06 14:20:54;;;;;;;1.53;1.43;;;;;;;;;;5013989;28;20459;-57
2022/07/06 14:23:20;;;;;;;1.73;1.63;;;;;;;;;;5014692;28;20814;-54
2022/07/06 14:25:47;;;;;;;1.53;1.43;;;;;;;;;;5014516;28;20423;-56
2022/07/06 14:28:13;;;;;;;1.37;1.27;;;;;;;;;;5014385;28;20769;-56
2022/07/06 14:30:39;;;;;;;2.60;1.63;;;;;;;;;;5013453;28;20522;-56
2022/07/06 14:33:09;;;;;;;4.23;1.33;;;;;;;;;;5013951;28;20520;-56
2022/07/06 14:35:35;;;;;;;7.33;1.60;;;;;;;;;;5003549;28;20600;-54
2022/07/06 14:38:02;;;;;;;2.40;1.60;;;;;;;;;;5014259;28;20442;-55
2022/07/06 14:40:28;;;;;;;3.83;1.43;;;;;;;;;;5013627;28;20766;-54
2022/07/06 14:42:54;;;;;;;1.70;1.60;;;;;;;;;;5013456;28;20421;-56
2022/07/06 14:45:20;;;;;;;1.40;1.27;;;;;;;;;;5014077;28;20414;-57
2022/07/06 14:47:46;;;;;;;3.57;1.30;;;;;;;;;;5014009;28;20431;-54